Briefing drone pour Saint-yorre

Rechercher une autre localisation

Conditions de vol :


Nous sommes le : Samedi 21 mai 2022
Il est 21:34 UTC (23:34 LT)

Lever de soleil : 03:40 UTC (05:40 LT)
Coucher de soleil : 19:44 UTC (21:44 LT)

Météo

L'essentiel des conditions de vol

VIGILANCE MÉTÉO FRANCE - Allier (03)
Vigilance Jaune : Orages
METAR de LFLV
LFLV 211800Z AUTO 03008KT CAVOK 27/17 Q1017

Date d'émission: 21/05/2022
Heure d'émission: 18:00 UTC
Vent: 030° pour 8 KT (15 km/h)
Visibilité horizontale: > 10 km
Plafond : Plafond et visibilité OK (CAVOK)
Température: 27 °C
Point de rosée: 17 °C
Humidité: 54%
Pression (QNH): 1017 hPa
Prévision 24h pour Vichy (4 km)
Vent : 112° pour 6 KT (22 km/h)
Temperature Maxi: 17 °C
Temperature Min: 17 °C
Humidité : 92%
Condition : Légère pluie



Warning: count(): Parameter must be an array or an object that implements Countable in /homepages/6/d509196549/htdocs/droneoxygene/briefing.php on line 743
WEBCAM POUR SAINT-YORRE

Réglementation

Voler en sécurité

CARTES AERONAUTIQUE 1/500.000
CARTES VAC (LFLV)
SUP AIP




Chargement des AIP...
NOTAM (SAINT-YORRE + Terrain à proximité / FIR )




Chargement des NOTAMS...
CONTACT PREFECTURE 03


Avertissement : Les données mises à disposition sont indicatives. Oxygène Drone ne pourra être tenu responsable de dégâts causés aux biens et aux personnes.